createdAt,value
2019-03-03T00:00:14.427Z,98610.00
2019-03-03T00:00:26.188Z,98605.00
2019-03-03T00:00:37.942Z,98605.00
2019-03-03T00:00:50.221Z,98607.00
2019-03-03T00:01:04.321Z,98607.00
2019-03-03T00:01:16.081Z,98607.00
2019-03-03T00:01:27.849Z,98609.00
2019-03-03T00:01:39.625Z,98611.00
2019-03-03T00:01:51.383Z,98611.00
2019-03-03T00:02:03.139Z,98611.00
2019-03-03T00:02:14.904Z,98610.00
2019-03-03T00:02:31.693Z,98611.00
2019-03-03T00:02:45.790Z,98607.00
2019-03-03T00:02:57.549Z,98610.00
2019-03-03T00:03:09.710Z,98611.00
2019-03-03T00:03:21.470Z,98608.00
2019-03-03T00:03:35.690Z,98611.00
2019-03-03T00:03:47.445Z,98605.00
2019-03-03T00:03:59.204Z,98608.00
2019-03-03T00:04:10.984Z,98607.00
2019-03-03T00:04:22.717Z,98607.00
2019-03-03T00:04:34.525Z,98606.00
2019-03-03T00:04:46.282Z,98608.00
2019-03-03T00:04:58.039Z,98605.00
2019-03-03T00:05:14.480Z,98606.00
2019-03-03T00:05:26.238Z,98602.00
2019-03-03T00:05:37.999Z,98604.00
2019-03-03T00:05:49.753Z,98602.00
2019-03-03T00:06:01.510Z,98604.00
2019-03-03T00:06:13.270Z,98605.00
2019-03-03T00:06:25.036Z,98606.00
2019-03-03T00:06:36.796Z,98610.00
2019-03-03T00:06:48.558Z,98608.00
2019-03-03T00:07:00.487Z,98603.00
2019-03-03T00:07:12.243Z,98605.00
2019-03-03T00:07:24.002Z,98607.00
2019-03-03T00:07:35.762Z,98607.00
2019-03-03T00:07:47.523Z,98607.00
2019-03-03T00:07:59.282Z,98601.00
2019-03-03T00:08:15.734Z,98604.00
2019-03-03T00:08:27.495Z,98604.00
2019-03-03T00:08:39.252Z,98605.00
2019-03-03T00:08:51.008Z,98605.00
2019-03-03T00:09:03.272Z,98603.00
2019-03-03T00:09:15.030Z,98600.00
2019-03-03T00:09:26.788Z,98607.00
2019-03-03T00:09:38.546Z,98605.00
2019-03-03T00:09:50.396Z,98602.00
2019-03-03T00:10:02.157Z,98603.00
2019-03-03T00:10:16.254Z,98600.00
2019-03-03T00:10:28.012Z,98602.00
2019-03-03T00:10:39.938Z,98597.00
2019-03-03T00:10:54.042Z,98602.00
2019-03-03T00:11:06.049Z,98602.00
2019-03-03T00:11:20.146Z,98602.00
2019-03-03T00:11:31.904Z,98599.00
2019-03-03T00:11:43.659Z,98597.00
2019-03-03T00:11:55.417Z,98604.00
2019-03-03T00:12:09.517Z,98600.00
2019-03-03T00:12:21.277Z,98600.00
2019-03-03T00:12:33.098Z,98603.00
2019-03-03T00:12:49.541Z,98601.00
2019-03-03T00:13:01.311Z,98599.00
2019-03-03T00:13:13.070Z,98598.00
2019-03-03T00:13:24.830Z,98599.00
2019-03-03T00:13:36.585Z,98600.00
2019-03-03T00:13:53.025Z,98599.00
2019-03-03T00:14:04.783Z,98599.00
2019-03-03T00:14:16.541Z,98600.00
2019-03-03T00:14:28.300Z,98600.00
2019-03-03T00:14:44.741Z,98598.00
2019-03-03T00:14:56.506Z,98602.00
2019-03-03T00:15:08.267Z,98604.00
2019-03-03T00:15:20.028Z,98600.00
2019-03-03T00:15:31.786Z,98599.00
2019-03-03T00:15:48.225Z,98601.00
2019-03-03T00:15:59.988Z,98604.00
2019-03-03T00:16:11.743Z,98600.00
2019-03-03T00:16:23.503Z,98603.00
2019-03-03T00:16:42.287Z,98600.00
2019-03-03T00:16:54.051Z,98599.00
2019-03-03T00:17:05.825Z,98598.00
2019-03-03T00:17:18.070Z,98601.00
2019-03-03T00:17:29.824Z,98602.00
2019-03-03T00:17:41.584Z,98598.00
2019-03-03T00:17:53.340Z,98600.00
2019-03-03T00:18:05.094Z,98598.00
2019-03-03T00:18:16.860Z,98597.00
2019-03-03T00:18:28.611Z,98597.00
2019-03-03T00:18:40.369Z,98602.00
2019-03-03T00:18:52.125Z,98600.00
2019-03-03T00:19:05.770Z,98598.00
2019-03-03T00:19:17.564Z,98597.00
2019-03-03T00:19:29.335Z,98596.00
2019-03-03T00:19:41.093Z,98599.00
2019-03-03T00:19:52.852Z,98596.00
2019-03-03T00:20:04.613Z,98596.00
2019-03-03T00:20:16.371Z,98594.00
2019-03-03T00:20:28.130Z,98594.00
2019-03-03T00:20:39.885Z,98595.00
2019-03-03T00:20:51.646Z,98595.00
2019-03-03T00:21:03.401Z,98595.00
2019-03-03T00:21:15.745Z,98595.00
2019-03-03T00:21:32.193Z,98594.00
2019-03-03T00:21:43.950Z,98593.00
2019-03-03T00:21:55.709Z,98596.00
2019-03-03T00:22:07.473Z,98595.00
2019-03-03T00:22:23.961Z,98595.00
2019-03-03T00:22:35.724Z,98597.00
2019-03-03T00:22:52.162Z,98593.00
2019-03-03T00:23:03.933Z,98593.00
2019-03-03T00:23:15.702Z,98595.00
2019-03-03T00:23:27.843Z,98595.00
2019-03-03T00:23:39.598Z,98595.00
2019-03-03T00:23:51.356Z,98596.00
2019-03-03T00:24:03.114Z,98597.00
2019-03-03T00:24:14.972Z,98595.00
2019-03-03T00:24:26.728Z,98596.00
2019-03-03T00:24:40.828Z,98595.00
2019-03-03T00:24:52.583Z,98596.00
2019-03-03T00:25:04.348Z,98594.00
2019-03-03T00:25:16.104Z,98595.00
2019-03-03T00:25:27.860Z,98593.00
2019-03-03T00:25:44.301Z,98594.00
2019-03-03T00:25:56.057Z,98588.00
2019-03-03T00:26:07.968Z,98590.00
2019-03-03T00:26:19.722Z,98589.00
2019-03-03T00:26:31.483Z,98592.00
2019-03-03T00:26:43.266Z,98595.00
2019-03-03T00:26:55.033Z,98591.00
2019-03-03T00:27:06.980Z,98590.00
2019-03-03T00:27:23.421Z,98590.00
2019-03-03T00:27:35.202Z,98588.00
2019-03-03T00:27:46.935Z,98588.00
2019-03-03T00:28:03.378Z,98590.00
2019-03-03T00:28:15.145Z,98588.00
2019-03-03T00:28:26.899Z,98585.00
2019-03-03T00:28:38.663Z,98585.00
2019-03-03T00:28:50.419Z,98589.00
2019-03-03T00:29:02.182Z,98587.00
2019-03-03T00:29:18.770Z,98587.00
2019-03-03T00:29:32.875Z,98582.00
2019-03-03T00:29:44.627Z,98584.00
2019-03-03T00:29:56.388Z,98588.00
2019-03-03T00:30:08.329Z,98585.00
2019-03-03T00:30:20.084Z,98589.00
2019-03-03T00:30:31.848Z,98586.00
2019-03-03T00:30:44.378Z,98587.00
2019-03-03T00:30:56.133Z,98585.00
2019-03-03T00:31:07.889Z,98589.00
2019-03-03T00:31:19.643Z,98587.00
2019-03-03T00:31:31.405Z,98585.00
2019-03-03T00:31:43.159Z,98588.00
2019-03-03T00:31:59.597Z,98586.00
2019-03-03T00:32:11.527Z,98587.00
2019-03-03T00:32:23.278Z,98591.00
2019-03-03T00:32:35.137Z,98593.00
2019-03-03T00:32:46.895Z,98591.00
2019-03-03T00:32:58.652Z,98593.00
2019-03-03T00:33:10.474Z,98595.00
2019-03-03T00:33:22.233Z,98596.00
2019-03-03T00:33:33.998Z,98594.00
2019-03-03T00:33:45.756Z,98590.00
2019-03-03T00:33:57.512Z,98590.00
2019-03-03T00:34:11.612Z,98591.00
2019-03-03T00:34:23.371Z,98593.00
2019-03-03T00:34:35.130Z,98592.00
2019-03-03T00:34:46.891Z,98590.00
2019-03-03T00:34:58.647Z,98591.00
2019-03-03T00:35:15.090Z,98593.00
2019-03-03T00:35:26.848Z,98595.00
2019-03-03T00:35:38.607Z,98591.00
2019-03-03T00:35:50.365Z,98587.00
2019-03-03T00:36:09.148Z,98589.00
2019-03-03T00:36:20.909Z,98591.00
2019-03-03T00:36:32.668Z,98591.00
2019-03-03T00:36:44.976Z,98591.00
2019-03-03T00:36:56.810Z,98588.00
2019-03-03T00:37:08.567Z,98590.00
2019-03-03T00:37:20.322Z,98591.00
2019-03-03T00:37:32.082Z,98591.00
2019-03-03T00:37:43.839Z,98591.00
2019-03-03T00:37:55.598Z,98590.00
2019-03-03T00:38:09.694Z,98585.00
2019-03-03T00:38:21.484Z,98584.00
2019-03-03T00:38:35.589Z,98590.00
2019-03-03T00:38:47.345Z,98589.00
2019-03-03T00:38:59.104Z,98590.00
2019-03-03T00:39:10.925Z,98589.00
2019-03-03T00:39:22.679Z,98594.00
2019-03-03T00:39:34.437Z,98586.00
2019-03-03T00:39:46.227Z,98588.00
2019-03-03T00:39:58.034Z,98585.00
2019-03-03T00:40:09.791Z,98584.00
2019-03-03T00:40:21.548Z,98583.00
2019-03-03T00:40:33.344Z,98585.00
2019-03-03T00:40:45.090Z,98589.00
2019-03-03T00:40:56.845Z,98587.00
2019-03-03T00:41:10.959Z,98588.00
2019-03-03T00:41:22.716Z,98588.00
2019-03-03T00:41:34.473Z,98587.00
2019-03-03T00:41:46.236Z,98590.00
2019-03-03T00:41:57.993Z,98589.00
2019-03-03T00:42:12.085Z,98588.00
2019-03-03T00:42:23.839Z,98588.00
2019-03-03T00:42:35.605Z,98590.00
2019-03-03T00:42:47.359Z,98589.00
2019-03-03T00:42:59.116Z,98589.00
2019-03-03T00:43:13.217Z,98588.00
2019-03-03T00:43:25.066Z,98594.00
2019-03-03T00:43:36.831Z,98589.00
2019-03-03T00:43:48.588Z,98587.00
2019-03-03T00:44:00.379Z,98592.00
2019-03-03T00:44:12.138Z,98591.00
2019-03-03T00:44:23.922Z,98589.00
2019-03-03T00:44:35.680Z,98590.00
2019-03-03T00:44:49.776Z,98590.00
2019-03-03T00:45:01.532Z,98588.00
2019-03-03T00:45:13.287Z,98590.00
2019-03-03T00:45:25.044Z,98595.00
2019-03-03T00:45:36.802Z,98588.00
2019-03-03T00:45:48.558Z,98590.00
2019-03-03T00:46:00.313Z,98594.00
2019-03-03T00:46:12.070Z,98593.00
2019-03-03T00:46:23.831Z,98591.00
2019-03-03T00:46:35.633Z,98591.00
2019-03-03T00:46:47.391Z,98593.00
2019-03-03T00:46:59.148Z,98595.00
2019-03-03T00:47:10.924Z,98595.00
2019-03-03T00:47:22.686Z,98593.00
2019-03-03T00:47:34.868Z,98595.00
2019-03-03T00:47:48.967Z,98594.00
2019-03-03T00:48:00.723Z,98594.00
2019-03-03T00:48:12.479Z,98593.00
2019-03-03T00:48:24.265Z,98592.00
2019-03-03T00:48:36.021Z,98594.00
2019-03-03T00:48:47.787Z,98592.00
2019-03-03T00:49:02.114Z,98596.00
2019-03-03T00:49:13.871Z,98595.00
2019-03-03T00:49:25.641Z,98596.00
2019-03-03T00:49:37.386Z,98595.00
2019-03-03T00:49:49.143Z,98592.00
2019-03-03T00:50:00.906Z,98593.00
2019-03-03T00:50:15.124Z,98590.00
2019-03-03T00:50:26.882Z,98588.00
2019-03-03T00:50:38.641Z,98595.00
2019-03-03T00:50:50.399Z,98591.00
2019-03-03T00:51:02.155Z,98593.00
2019-03-03T00:51:13.928Z,98595.00
2019-03-03T00:51:30.369Z,98600.00
2019-03-03T00:51:42.131Z,98602.00
2019-03-03T00:51:53.890Z,98594.00
2019-03-03T00:52:05.661Z,98592.00
2019-03-03T00:52:17.414Z,98596.00
2019-03-03T00:52:29.171Z,98596.00
2019-03-03T00:52:43.602Z,98593.00
2019-03-03T00:52:55.358Z,98597.00
2019-03-03T00:53:07.117Z,98596.00
2019-03-03T00:53:18.871Z,98597.00
2019-03-03T00:53:30.639Z,98598.00
2019-03-03T00:53:42.405Z,98596.00
2019-03-03T00:53:54.165Z,98597.00
2019-03-03T00:54:08.499Z,98595.00
2019-03-03T00:54:20.254Z,98598.00
2019-03-03T00:54:32.011Z,98595.00
2019-03-03T00:54:43.769Z,98592.00
2019-03-03T00:54:55.524Z,98592.00
2019-03-03T00:55:07.279Z,98591.00
2019-03-03T00:55:21.377Z,98592.00
2019-03-03T00:55:33.157Z,98589.00
2019-03-03T00:55:44.915Z,98583.00
2019-03-03T00:55:56.942Z,98588.00
2019-03-03T00:56:08.699Z,98590.00
2019-03-03T00:56:20.454Z,98593.00
2019-03-03T00:56:32.210Z,98589.00
2019-03-03T00:56:43.969Z,98592.00
2019-03-03T00:56:55.721Z,98591.00
2019-03-03T00:57:12.161Z,98590.00
2019-03-03T00:57:23.923Z,98588.00
2019-03-03T00:57:35.680Z,98584.00
2019-03-03T00:57:47.445Z,98586.00
2019-03-03T00:58:01.544Z,98586.00
2019-03-03T00:58:13.302Z,98580.00
2019-03-03T00:58:25.060Z,98583.00
2019-03-03T00:58:36.830Z,98580.00
2019-03-03T00:58:48.588Z,98581.00
2019-03-03T00:59:00.649Z,98580.00
2019-03-03T00:59:14.752Z,98578.00
2019-03-03T00:59:26.504Z,98581.00
2019-03-03T00:59:38.260Z,98581.00
2019-03-03T00:59:50.018Z,98586.00
2019-03-03T01:00:04.241Z,98583.00
2019-03-03T01:00:15.998Z,98584.00
2019-03-03T01:00:28.507Z,98580.00
2019-03-03T01:00:40.795Z,98579.00
2019-03-03T01:00:52.555Z,98578.00
2019-03-03T01:01:04.335Z,98577.00
2019-03-03T01:01:16.097Z,98580.00
2019-03-03T01:01:27.854Z,98578.00
2019-03-03T01:01:42.647Z,98578.00
2019-03-03T01:01:54.404Z,98580.00
2019-03-03T01:02:06.404Z,98576.00
2019-03-03T01:02:18.160Z,98583.00
2019-03-03T01:02:32.262Z,98576.00
2019-03-03T01:02:44.017Z,98574.00
2019-03-03T01:02:55.770Z,98572.00
2019-03-03T01:03:09.868Z,98577.00
2019-03-03T01:03:21.646Z,98578.00
2019-03-03T01:03:35.759Z,98574.00
2019-03-03T01:03:47.519Z,98576.00
2019-03-03T01:03:59.760Z,98575.00
2019-03-03T01:04:11.591Z,98575.00
2019-03-03T01:04:23.347Z,98577.00
2019-03-03T01:04:35.144Z,98578.00
2019-03-03T01:04:46.906Z,98576.00
2019-03-03T01:04:58.660Z,98581.00
2019-03-03T01:05:10.419Z,98581.00
2019-03-03T01:05:22.225Z,98581.00
2019-03-03T01:05:33.982Z,98580.00
2019-03-03T01:05:48.085Z,98580.00
2019-03-03T01:05:59.842Z,98577.00
2019-03-03T01:06:11.636Z,98580.00
2019-03-03T01:06:23.397Z,98581.00
2019-03-03T01:06:35.158Z,98580.00
2019-03-03T01:06:46.911Z,98580.00
2019-03-03T01:06:58.669Z,98577.00
2019-03-03T01:07:12.764Z,98579.00
2019-03-03T01:07:24.526Z,98583.00
2019-03-03T01:07:36.283Z,98579.00
2019-03-03T01:07:48.041Z,98576.00
2019-03-03T01:07:59.808Z,98575.00
2019-03-03T01:08:16.249Z,98574.00
2019-03-03T01:08:28.031Z,98577.00
2019-03-03T01:08:39.795Z,98578.00
2019-03-03T01:08:51.551Z,98575.00
2019-03-03T01:09:03.485Z,98579.00
2019-03-03T01:09:17.585Z,98578.00
2019-03-03T01:09:29.493Z,98582.00
2019-03-03T01:09:41.250Z,98582.00
2019-03-03T01:09:53.008Z,98581.00
2019-03-03T01:10:04.764Z,98583.00
2019-03-03T01:10:16.521Z,98581.00
2019-03-03T01:10:28.304Z,98581.00
2019-03-03T01:10:40.058Z,98583.00
2019-03-03T01:10:54.154Z,98583.00
2019-03-03T01:11:06.162Z,98583.00
2019-03-03T01:11:17.917Z,98582.00
2019-03-03T01:11:29.674Z,98583.00
2019-03-03T01:11:41.430Z,98581.00
2019-03-03T01:11:53.675Z,98583.00
2019-03-03T01:12:06.064Z,98580.00
2019-03-03T01:12:17.822Z,98579.00
2019-03-03T01:12:29.575Z,98580.00
2019-03-03T01:12:41.330Z,98576.00
2019-03-03T01:12:53.088Z,98575.00
2019-03-03T01:13:04.844Z,98576.00
2019-03-03T01:13:18.941Z,98576.00
2019-03-03T01:13:30.698Z,98574.00
2019-03-03T01:13:42.463Z,98574.00
2019-03-03T01:13:55.666Z,98575.00
2019-03-03T01:14:05.984Z,98576.00
2019-03-03T01:14:20.084Z,98575.00
2019-03-03T01:14:31.838Z,98577.00
2019-03-03T01:14:43.596Z,98577.00
2019-03-03T01:14:55.359Z,98576.00
2019-03-03T01:15:07.144Z,98578.00
2019-03-03T01:15:18.899Z,98575.00
2019-03-03T01:15:30.661Z,98577.00
2019-03-03T01:15:47.102Z,98579.00
2019-03-03T01:15:58.863Z,98581.00
2019-03-03T01:16:10.616Z,98581.00
2019-03-03T01:16:22.373Z,98577.00
2019-03-03T01:16:34.128Z,98575.00
2019-03-03T01:16:45.890Z,98578.00
2019-03-03T01:16:57.646Z,98579.00
2019-03-03T01:17:09.400Z,98576.00
2019-03-03T01:17:21.768Z,98577.00
2019-03-03T01:17:35.868Z,98578.00
2019-03-03T01:17:47.624Z,98579.00
2019-03-03T01:18:00.169Z,98579.00
2019-03-03T01:18:11.922Z,98577.00
2019-03-03T01:18:23.679Z,98579.00
2019-03-03T01:18:35.470Z,98577.00
2019-03-03T01:18:47.228Z,98577.00
2019-03-03T01:18:58.988Z,98577.00
2019-03-03T01:19:10.747Z,98581.00
2019-03-03T01:19:22.502Z,98576.00
2019-03-03T01:19:36.601Z,98577.00
2019-03-03T01:19:48.359Z,98578.00
2019-03-03T01:20:00.231Z,98579.00
2019-03-03T01:20:11.876Z,98577.00
2019-03-03T01:20:23.833Z,98576.00
2019-03-03T01:20:35.736Z,98574.00
2019-03-03T01:20:47.490Z,98577.00
2019-03-03T01:20:59.247Z,98580.00
2019-03-03T01:21:11.007Z,98578.00
2019-03-03T01:21:22.764Z,98576.00
2019-03-03T01:21:34.526Z,98576.00
2019-03-03T01:21:46.281Z,98579.00
2019-03-03T01:22:02.728Z,98579.00
2019-03-03T01:22:14.482Z,98579.00
2019-03-03T01:22:26.244Z,98580.00
2019-03-03T01:22:38.003Z,98580.00
2019-03-03T01:22:49.798Z,98580.00
2019-03-03T01:23:03.192Z,98581.00
2019-03-03T01:23:13.313Z,98579.00
2019-03-03T01:23:27.408Z,98582.00
2019-03-03T01:23:39.179Z,98580.00
2019-03-03T01:23:50.936Z,98581.00
2019-03-03T01:24:02.696Z,98582.00
2019-03-03T01:24:14.452Z,98583.00
2019-03-03T01:24:28.551Z,98582.00
2019-03-03T01:24:40.331Z,98581.00
2019-03-03T01:24:52.086Z,98577.00
2019-03-03T01:25:03.841Z,98579.00
2019-03-03T01:25:15.628Z,98583.00
2019-03-03T01:25:27.381Z,98581.00
2019-03-03T01:25:39.137Z,98584.00
2019-03-03T01:25:55.580Z,98587.00
2019-03-03T01:26:07.340Z,98585.00
2019-03-03T01:26:19.097Z,98588.00
2019-03-03T01:26:30.851Z,98583.00
2019-03-03T01:26:44.952Z,98585.00
2019-03-03T01:26:56.708Z,98586.00
2019-03-03T01:27:08.468Z,98587.00
2019-03-03T01:27:20.223Z,98580.00
2019-03-03T01:27:31.978Z,98587.00
2019-03-03T01:27:46.082Z,98585.00
2019-03-03T01:27:57.840Z,98585.00
2019-03-03T01:28:09.596Z,98587.00
2019-03-03T01:28:21.357Z,98586.00
2019-03-03T01:28:33.114Z,98585.00
2019-03-03T01:28:47.226Z,98586.00
2019-03-03T01:28:58.981Z,98585.00
2019-03-03T01:29:10.748Z,98586.00
2019-03-03T01:29:22.507Z,98588.00
2019-03-03T01:29:34.345Z,98586.00
2019-03-03T01:29:46.108Z,98585.00
2019-03-03T01:29:57.866Z,98589.00
2019-03-03T01:30:09.622Z,98591.00
2019-03-03T01:30:21.386Z,98591.00
2019-03-03T01:30:33.156Z,98588.00
2019-03-03T01:30:44.905Z,98586.00
2019-03-03T01:30:59.005Z,98586.00
2019-03-03T01:31:10.908Z,98587.00
2019-03-03T01:31:22.665Z,98585.00
2019-03-03T01:31:34.422Z,98585.00
2019-03-03T01:31:46.336Z,98583.00
2019-03-03T01:31:58.425Z,98585.00
2019-03-03T01:32:12.523Z,98585.00
2019-03-03T01:32:24.279Z,98584.00
2019-03-03T01:32:36.044Z,98584.00
2019-03-03T01:32:47.797Z,98586.00
2019-03-03T01:32:59.557Z,98587.00
2019-03-03T01:33:13.659Z,98586.00
2019-03-03T01:33:25.417Z,98584.00
2019-03-03T01:33:37.171Z,98586.00
2019-03-03T01:33:48.946Z,98583.00
2019-03-03T01:34:00.704Z,98583.00
2019-03-03T01:34:14.798Z,98587.00
2019-03-03T01:34:26.556Z,98581.00
2019-03-03T01:34:38.315Z,98581.00
2019-03-03T01:34:50.451Z,98580.00
2019-03-03T01:35:02.232Z,98584.00
2019-03-03T01:35:16.565Z,98582.00
2019-03-03T01:35:28.322Z,98583.00
2019-03-03T01:35:40.077Z,98581.00
2019-03-03T01:35:51.903Z,98578.00
2019-03-03T01:36:05.999Z,98581.00
2019-03-03T01:36:17.755Z,98582.00
2019-03-03T01:36:29.511Z,98581.00
2019-03-03T01:36:41.307Z,98580.00
2019-03-03T01:36:53.066Z,98580.00
2019-03-03T01:37:04.827Z,98586.00
2019-03-03T01:37:21.355Z,98585.00
2019-03-03T01:37:33.113Z,98579.00
2019-03-03T01:37:44.906Z,98579.00
2019-03-03T01:37:56.664Z,98584.00
2019-03-03T01:38:08.423Z,98588.00
2019-03-03T01:38:20.180Z,98594.00
2019-03-03T01:38:34.280Z,98588.00
2019-03-03T01:38:46.047Z,98586.00
2019-03-03T01:38:58.088Z,98586.00
2019-03-03T01:39:09.887Z,98585.00
2019-03-03T01:39:21.640Z,98585.00
2019-03-03T01:39:33.399Z,98582.00
2019-03-03T01:39:47.498Z,98585.00
2019-03-03T01:39:59.256Z,98581.00
2019-03-03T01:40:11.031Z,98580.00
2019-03-03T01:40:22.792Z,98582.00
2019-03-03T01:40:34.560Z,98588.00
2019-03-03T01:40:46.316Z,98586.00
2019-03-03T01:40:58.074Z,98583.00
2019-03-03T01:41:09.829Z,98583.00
2019-03-03T01:41:21.602Z,98579.00
2019-03-03T01:41:33.504Z,98584.00
2019-03-03T01:41:47.624Z,98583.00
2019-03-03T01:41:59.436Z,98580.00
2019-03-03T01:42:11.137Z,98580.00
2019-03-03T01:42:22.895Z,98585.00
2019-03-03T01:42:34.657Z,98580.00
2019-03-03T01:42:51.091Z,98577.00
2019-03-03T01:43:02.853Z,98579.00
2019-03-03T01:43:14.613Z,98579.00
2019-03-03T01:43:26.376Z,98577.00
2019-03-03T01:43:38.131Z,98579.00
2019-03-03T01:43:52.240Z,98580.00
2019-03-03T01:44:04.025Z,98575.00
2019-03-03T01:44:15.783Z,98575.00
2019-03-03T01:44:27.537Z,98580.00
2019-03-03T01:44:39.298Z,98576.00
2019-03-03T01:44:51.057Z,98581.00
2019-03-03T01:45:02.812Z,98585.00
2019-03-03T01:45:17.664Z,98583.00
2019-03-03T01:45:29.416Z,98578.00
2019-03-03T01:45:41.175Z,98581.00
2019-03-03T01:45:52.931Z,98582.00
2019-03-03T01:46:04.735Z,98580.00
2019-03-03T01:46:16.493Z,98579.00
2019-03-03T01:46:28.255Z,98582.00
2019-03-03T01:46:40.022Z,98581.00
2019-03-03T01:46:51.777Z,98579.00
2019-03-03T01:47:05.925Z,98578.00
2019-03-03T01:47:17.679Z,98583.00
2019-03-03T01:47:31.778Z,98581.00
2019-03-03T01:47:43.534Z,98579.00
2019-03-03T01:47:55.327Z,98582.00
2019-03-03T01:48:07.085Z,98580.00
2019-03-03T01:48:18.844Z,98576.00
2019-03-03T01:48:30.601Z,98577.00
2019-03-03T01:48:42.359Z,98578.00
2019-03-03T01:48:56.467Z,98578.00
2019-03-03T01:49:08.257Z,98580.00
2019-03-03T01:49:20.551Z,98576.00
2019-03-03T01:49:32.310Z,98578.00
2019-03-03T01:49:44.064Z,98576.00
2019-03-03T01:49:55.831Z,98575.00
2019-03-03T01:50:07.584Z,98580.00
2019-03-03T01:50:19.343Z,98572.00
2019-03-03T01:50:33.442Z,98575.00
2019-03-03T01:50:45.202Z,98575.00
2019-03-03T01:50:56.960Z,98577.00
2019-03-03T01:51:08.722Z,98577.00
2019-03-03T01:51:20.478Z,98577.00
2019-03-03T01:51:34.575Z,98578.00
2019-03-03T01:51:46.335Z,98580.00
2019-03-03T01:51:58.126Z,98578.00
2019-03-03T01:52:09.881Z,98579.00
2019-03-03T01:52:21.641Z,98579.00
2019-03-03T01:52:33.395Z,98579.00
2019-03-03T01:52:45.152Z,98578.00
2019-03-03T01:52:59.256Z,98579.00
2019-03-03T01:53:11.025Z,98575.00
2019-03-03T01:53:22.797Z,98580.00
2019-03-03T01:53:34.554Z,98581.00
2019-03-03T01:53:46.312Z,98582.00
2019-03-03T01:53:58.193Z,98577.00
2019-03-03T01:54:09.957Z,98583.00
2019-03-03T01:54:21.923Z,98581.00
2019-03-03T01:54:36.031Z,98580.00
2019-03-03T01:54:47.792Z,98578.00
2019-03-03T01:54:59.629Z,98580.00
2019-03-03T01:55:11.384Z,98582.00
2019-03-03T01:55:25.486Z,98580.00
2019-03-03T01:55:37.243Z,98580.00
2019-03-03T01:55:48.999Z,98579.00
2019-03-03T01:56:00.754Z,98580.00
2019-03-03T01:56:17.230Z,98581.00
2019-03-03T01:56:31.330Z,98583.00
2019-03-03T01:56:43.086Z,98581.00
2019-03-03T01:56:54.844Z,98583.00
2019-03-03T01:57:06.597Z,98581.00
2019-03-03T01:57:23.037Z,98584.00
2019-03-03T01:57:34.795Z,98584.00
2019-03-03T01:57:46.551Z,98585.00
2019-03-03T01:57:58.306Z,98583.00
2019-03-03T01:58:12.431Z,98582.00
2019-03-03T01:58:26.760Z,98584.00
2019-03-03T01:58:38.521Z,98585.00
2019-03-03T01:58:50.274Z,98585.00
2019-03-03T01:59:02.148Z,98588.00
2019-03-03T01:59:13.904Z,98585.00
2019-03-03T01:59:25.660Z,98583.00
2019-03-03T01:59:37.418Z,98580.00
2019-03-03T01:59:49.174Z,98581.00
2019-03-03T02:00:00.931Z,98583.00
2019-03-03T02:00:13.873Z,98583.00
2019-03-03T02:00:25.632Z,98582.00
2019-03-03T02:00:37.387Z,98585.00
2019-03-03T02:00:49.146Z,98582.00
2019-03-03T02:01:00.903Z,98583.00
2019-03-03T02:01:12.661Z,98587.00
2019-03-03T02:01:27.088Z,98586.00
2019-03-03T02:01:38.850Z,98583.00
2019-03-03T02:01:50.608Z,98590.00
2019-03-03T02:02:02.362Z,98585.00
2019-03-03T02:02:14.152Z,98587.00
2019-03-03T02:02:25.914Z,98584.00
2019-03-03T02:02:38.161Z,98585.00
2019-03-03T02:02:52.255Z,98583.00
2019-03-03T02:03:04.011Z,98576.00
2019-03-03T02:03:15.768Z,98579.00
2019-03-03T02:03:27.524Z,98581.00
2019-03-03T02:03:41.624Z,98579.00
2019-03-03T02:03:53.380Z,98577.00
2019-03-03T02:04:05.160Z,98582.00
2019-03-03T02:04:16.917Z,98580.00
2019-03-03T02:04:28.676Z,98582.00
2019-03-03T02:04:40.432Z,98584.00
2019-03-03T02:04:54.528Z,98589.00
2019-03-03T02:05:06.317Z,98590.00
2019-03-03T02:05:18.049Z,98584.00
2019-03-03T02:05:29.805Z,98588.00
2019-03-03T02:05:41.564Z,98585.00
2019-03-03T02:05:55.660Z,98584.00
2019-03-03T02:06:07.417Z,98585.00
2019-03-03T02:06:19.180Z,98587.00
2019-03-03T02:06:30.932Z,98584.00
2019-03-03T02:06:42.689Z,98586.00
2019-03-03T02:06:54.446Z,98586.00
2019-03-03T02:07:06.232Z,98585.00
2019-03-03T02:07:18.116Z,98584.00
2019-03-03T02:07:29.874Z,98584.00
2019-03-03T02:07:41.631Z,98585.00
2019-03-03T02:07:53.394Z,98586.00
2019-03-03T02:08:05.328Z,98583.00
2019-03-03T02:08:19.429Z,98586.00
2019-03-03T02:08:31.188Z,98587.00
2019-03-03T02:08:42.950Z,98588.00
2019-03-03T02:08:54.708Z,98591.00
2019-03-03T02:09:10.382Z,98589.00
2019-03-03T02:09:23.256Z,98588.00
2019-03-03T02:09:38.309Z,98586.00
2019-03-03T02:09:52.540Z,98583.00
2019-03-03T02:10:06.638Z,98585.00
2019-03-03T02:10:18.423Z,98583.00
2019-03-03T02:10:30.319Z,98582.00
2019-03-03T02:10:42.077Z,98585.00
2019-03-03T02:10:53.830Z,98584.00
2019-03-03T02:11:05.588Z,98585.00
2019-03-03T02:11:17.347Z,98582.00
2019-03-03T02:11:29.102Z,98585.00
2019-03-03T02:11:40.861Z,98581.00
2019-03-03T02:11:52.615Z,98580.00
2019-03-03T02:12:04.374Z,98579.00
2019-03-03T02:12:16.208Z,98582.00
2019-03-03T02:12:30.308Z,98587.00
2019-03-03T02:12:42.067Z,98580.00
2019-03-03T02:12:53.829Z,98581.00
2019-03-03T02:13:05.580Z,98581.00
2019-03-03T02:13:19.679Z,98581.00
2019-03-03T02:13:31.434Z,98585.00
2019-03-03T02:13:43.193Z,98583.00
2019-03-03T02:13:54.999Z,98582.00
2019-03-03T02:14:06.775Z,98581.00
2019-03-03T02:14:18.531Z,98578.00
2019-03-03T02:14:30.291Z,98578.00
2019-03-03T02:14:42.051Z,98578.00
2019-03-03T02:14:58.493Z,98581.00
2019-03-03T02:15:10.249Z,98579.00
2019-03-03T02:15:22.014Z,98578.00
2019-03-03T02:15:33.763Z,98580.00
2019-03-03T02:15:45.517Z,98577.00
2019-03-03T02:15:59.624Z,98576.00
2019-03-03T02:16:11.381Z,98577.00
2019-03-03T02:16:23.139Z,98578.00
2019-03-03T02:16:36.104Z,98580.00
2019-03-03T02:16:50.229Z,98577.00
2019-03-03T02:17:01.985Z,98576.00
2019-03-03T02:17:13.745Z,98577.00
2019-03-03T02:17:25.499Z,98582.00
2019-03-03T02:17:37.257Z,98577.00
2019-03-03T02:17:49.020Z,98579.00
2019-03-03T02:18:03.113Z,98579.00
2019-03-03T02:18:14.869Z,98580.00
2019-03-03T02:18:26.631Z,98578.00
2019-03-03T02:18:38.386Z,98580.00
2019-03-03T02:18:50.158Z,98581.00
2019-03-03T02:19:06.625Z,98582.00
2019-03-03T02:19:18.384Z,98581.00
2019-03-03T02:19:30.144Z,98577.00
2019-03-03T02:19:41.922Z,98582.00
2019-03-03T02:19:53.680Z,98580.00
2019-03-03T02:20:05.434Z,98581.00
2019-03-03T02:20:17.222Z,98578.00
2019-03-03T02:20:28.975Z,98577.00
2019-03-03T02:20:43.076Z,98575.00
2019-03-03T02:20:54.854Z,98575.00
2019-03-03T02:21:06.586Z,98574.00
2019-03-03T02:21:18.344Z,98579.00
2019-03-03T02:21:30.101Z,98579.00
2019-03-03T02:21:44.204Z,98579.00
2019-03-03T02:21:55.963Z,98580.00
2019-03-03T02:22:07.740Z,98577.00
2019-03-03T02:22:19.497Z,98578.00
2019-03-03T02:22:31.264Z,98575.00
2019-03-03T02:22:43.021Z,98578.00
2019-03-03T02:22:54.778Z,98574.00
2019-03-03T02:23:08.876Z,98574.00
2019-03-03T02:23:20.635Z,98575.00
2019-03-03T02:23:32.393Z,98572.00
2019-03-03T02:23:44.149Z,98571.00
2019-03-03T02:23:58.249Z,98577.00
2019-03-03T02:24:10.017Z,98578.00
2019-03-03T02:24:21.772Z,98576.00